Time;durP1;ratioP1;P1;durP2;ratioP2;P2;SDS_P1;SDS_P2;PMS_P1;PMS_P2;Temp;Humidity;BMP_temperature;BMP_pressure;BME280_temperature;BME280_humidity;BME280_pressure;Samples;Min_cycle;Max_cycle;Signal;HPM_P1;HPM_P2
2021/12/09 00:00:30;;;;;;;15.60;14.10;;;4.70;99.90;;;;;;4109698;28;20054;-54
2021/12/09 00:02:33;;;;;;;12.85;12.02;;;4.70;99.90;;;;;;4121684;28;20042;-54
2021/12/09 00:04:35;;;;;;;8.27;7.97;;;4.70;99.90;;;;;;4115479;28;20058;-55
2021/12/09 00:06:38;;;;;;;7.57;7.20;;;4.60;99.90;;;;;;4122813;28;20039;-54
2021/12/09 00:08:41;;;;;;;6.80;6.65;;;4.60;99.90;;;;;;4118327;28;20456;-54
2021/12/09 00:10:43;;;;;;;4.00;3.92;;;4.60;99.90;;;;;;4122025;28;20038;-54
2021/12/09 00:12:46;;;;;;;5.45;5.25;;;4.60;99.90;;;;;;4122735;28;20566;-54
2021/12/09 00:14:48;;;;;;;6.28;6.18;;;4.60;99.90;;;;;;4175024;28;20080;-53
2021/12/09 00:16:52;;;;;;;15.40;14.15;;;4.60;99.90;;;;;;4161391;28;20064;-53
2021/12/09 00:18:55;;;;;;;14.95;13.88;;;4.60;99.90;;;;;;4191244;28;20037;-54
2021/12/09 00:20:57;;;;;;;20.15;17.08;;;4.60;99.90;;;;;;4185481;28;20044;-54
2021/12/09 00:22:59;;;;;;;40.85;30.42;;;4.60;99.90;;;;;;4193581;28;20507;-53
2021/12/09 00:25:01;;;;;;;21.38;19.38;;;4.60;99.90;;;;;;4191794;28;20036;-54
2021/12/09 00:27:04;;;;;;;44.88;22.58;;;4.60;99.90;;;;;;4193178;28;20024;-54
2021/12/09 00:29:07;;;;;;;212.98;28.92;;;4.60;99.90;;;;;;4195642;28;20036;-54
2021/12/09 00:31:09;;;;;;;322.65;33.10;;;4.60;99.90;;;;;;4194740;28;20090;-54
2021/12/09 00:33:12;;;;;;;255.90;28.90;;;4.60;99.90;;;;;;4184113;28;20037;-54
2021/12/09 00:35:16;;;;;;;355.70;35.88;;;4.60;99.90;;;;;;4192810;28;20067;-55
2021/12/09 00:37:32;;;;;;;119.85;24.15;;;4.50;99.90;;;;;;4192486;28;20718;-55
2021/12/09 00:39:34;;;;;;;19.95;17.83;;;4.50;99.90;;;;;;4194604;28;20041;-55
2021/12/09 00:41:37;;;;;;;29.58;25.40;;;4.50;99.90;;;;;;4190693;28;20041;-55
2021/12/09 00:43:40;;;;;;;24.83;22.02;;;4.50;99.90;;;;;;4194763;28;20048;-53
2021/12/09 00:45:43;;;;;;;22.00;19.38;;;4.50;99.90;;;;;;4194862;28;20044;-54
2021/12/09 00:47:45;;;;;;;;;;;4.50;99.90;;;;;;4193957;28;20590;-56
2021/12/09 00:49:48;;;;;;;6.88;6.68;;;4.70;99.90;;;;;;4176701;28;19927;-55
2021/12/09 00:51:51;;;;;;;8.40;7.90;;;4.80;99.90;;;;;;4194023;28;20106;-55
2021/12/09 00:53:53;;;;;;;12.73;11.93;;;4.70;99.90;;;;;;4194867;28;20082;-55
2021/12/09 00:55:55;;;;;;;14.02;13.02;;;4.70;99.90;;;;;;4194899;28;20844;-55
2021/12/09 00:57:57;;;;;;;;;;;4.70;99.90;;;;;;4192444;28;20086;-53
2021/12/09 01:00:00;;;;;;;12.05;11.15;;;4.70;99.90;;;;;;4194449;28;19920;-56
2021/12/09 01:02:02;;;;;;;12.52;11.65;;;4.60;99.90;;;;;;4192844;28;20047;-54
2021/12/09 01:04:05;;;;;;;14.27;11.68;;;4.60;99.90;;;;;;4191828;28;20041;-55
2021/12/09 01:06:08;;;;;;;10.25;9.70;;;4.60;99.90;;;;;;4186624;28;20040;-55
2021/12/09 01:08:15;;;;;;;9.40;8.90;;;4.60;99.90;;;;;;4185701;28;20111;-55
2021/12/09 01:10:17;;;;;;;6.78;6.60;;;4.70;99.90;;;;;;4193985;28;20155;-54
2021/12/09 01:12:20;;;;;;;9.70;8.98;;;4.70;99.90;;;;;;4192248;28;20035;-54
2021/12/09 01:14:22;;;;;;;7.03;6.70;;;4.70;99.90;;;;;;4195015;28;20048;-55
2021/12/09 01:16:25;;;;;;;7.53;7.32;;;4.80;99.90;;;;;;4194839;28;20094;-55
2021/12/09 01:18:27;;;;;;;9.20;8.90;;;4.80;99.90;;;;;;4192568;28;20439;-55
2021/12/09 01:20:29;;;;;;;8.77;8.57;;;4.80;99.90;;;;;;4168332;28;20038;-54
2021/12/09 01:22:38;;;;;;;7.95;7.72;;;4.80;99.90;;;;;;4191384;28;20069;-55
2021/12/09 01:24:40;;;;;;;8.68;8.38;;;4.70;99.90;;;;;;4194820;28;20508;-56
2021/12/09 01:26:44;;;;;;;8.63;8.40;;;4.70;99.90;;;;;;4192824;28;20431;-54
2021/12/09 01:28:52;;;;;;;8.98;8.77;;;4.70;99.90;;;;;;4190286;28;20040;-54
2021/12/09 01:31:01;;;;;;;7.00;6.80;;;4.70;99.90;;;;;;4191115;28;20037;-55
2021/12/09 01:33:05;;;;;;;7.15;7.05;;;4.70;99.90;;;;;;4197179;28;20037;-54
2021/12/09 01:35:07;;;;;;;6.18;6.07;;;4.60;99.90;;;;;;4192937;28;20102;-54
2021/12/09 01:37:10;;;;;;;7.57;7.47;;;4.50;99.90;;;;;;4194562;28;20048;-54
2021/12/09 01:39:12;;;;;;;8.25;8.23;;;4.50;99.90;;;;;;4191804;28;20396;-55
2021/12/09 01:41:14;;;;;;;10.80;10.70;;;4.60;99.90;;;;;;4190445;28;20044;-55
2021/12/09 01:43:16;;;;;;;11.82;11.70;;;4.60;99.90;;;;;;4192275;28;20040;-55
2021/12/09 01:45:19;;;;;;;10.93;10.82;;;4.60;99.90;;;;;;4193976;28;20484;-55
2021/12/09 01:47:21;;;;;;;;;;;4.60;99.90;;;;;;4194892;28;20075;-55
2021/12/09 01:49:24;;;;;;;10.38;10.27;;;4.50;99.90;;;;;;4194505;28;20384;-55
2021/12/09 01:51:26;;;;;;;;;;;4.50;99.90;;;;;;4192762;28;20094;-55
2021/12/09 01:53:28;;;;;;;13.82;13.73;;;4.50;99.90;;;;;;4193672;28;19932;-55
2021/12/09 01:55:30;;;;;;;14.00;13.63;;;4.40;99.90;;;;;;4192870;28;20036;-55
2021/12/09 01:57:33;;;;;;;14.93;14.73;;;4.30;99.90;;;;;;4191591;28;20067;-55
2021/12/09 01:59:35;;;;;;;12.20;12.10;;;4.20;99.90;;;;;;4188285;28;20709;-55
2021/12/09 02:01:37;;;;;;;9.35;9.25;;;4.10;99.90;;;;;;4180838;28;20040;-54
2021/12/09 02:03:40;;;;;;;;;;;4.00;99.90;;;;;;4192630;28;20040;-54
2021/12/09 02:05:42;;;;;;;8.80;8.60;;;3.90;99.90;;;;;;4192947;28;19924;-54
2021/12/09 02:07:45;;;;;;;8.07;7.97;;;3.80;99.90;;;;;;4190986;28;20033;-55
2021/12/09 02:09:47;;;;;;;9.27;9.18;;;3.70;99.90;;;;;;4193837;28;20086;-54
2021/12/09 02:11:49;;;;;;;11.07;10.98;;;3.70;99.90;;;;;;4191672;28;20067;-54
2021/12/09 02:13:55;;;;;;;11.20;11.00;;;3.70;99.90;;;;;;4193810;28;20043;-54
2021/12/09 02:15:58;;;;;;;10.05;9.88;;;3.70;99.90;;;;;;4193395;28;20082;-54
2021/12/09 02:18:04;;;;;;;12.05;11.93;;;3.70;99.90;;;;;;4190901;28;20114;-55
2021/12/09 02:20:08;;;;;;;14.35;13.95;;;3.60;99.90;;;;;;4194024;28;20093;-54
2021/12/09 02:22:13;;;;;;;14.52;14.32;;;3.70;99.90;;;;;;4192693;28;20569;-54
2021/12/09 02:24:16;;;;;;;14.20;14.10;;;3.70;99.90;;;;;;4192536;28;20086;-54
2021/12/09 02:26:21;;;;;;;13.00;12.90;;;3.70;99.90;;;;;;4191852;28;20041;-54
2021/12/09 02:28:25;;;;;;;14.85;14.75;;;3.60;99.90;;;;;;4192144;28;20527;-54
2021/12/09 02:30:28;;;;;;;12.55;12.45;;;3.60;99.90;;;;;;4182460;28;20035;-55
2021/12/09 02:32:30;;;;;;;13.98;13.88;;;3.60;99.90;;;;;;4183631;28;20660;-53
2021/12/09 02:34:32;;;;;;;13.95;13.65;;;3.60;99.90;;;;;;4166579;28;20441;-55
2021/12/09 02:36:38;;;;;;;13.88;13.68;;;3.50;99.90;;;;;;4193481;28;20048;-55
2021/12/09 02:38:44;;;;;;;16.73;15.95;;;3.50;99.90;;;;;;4189139;28;20063;-54
2021/12/09 02:40:48;;;;;;;17.40;16.15;;;3.50;99.90;;;;;;4188702;28;20037;-55
2021/12/09 02:42:51;;;;;;;15.85;15.63;;;3.40;99.90;;;;;;4192292;28;20040;-54
2021/12/09 02:44:55;;;;;;;15.15;14.88;;;3.20;99.90;;;;;;4191854;28;20408;-53
2021/12/09 02:46:57;;;;;;;15.68;15.48;;;3.20;99.90;;;;;;4191258;28;20048;-54
2021/12/09 02:48:59;;;;;;;19.65;19.17;;;3.00;99.90;;;;;;4181453;28;20033;-55
2021/12/09 02:51:04;;;;;;;17.65;17.35;;;3.00;99.90;;;;;;4187562;28;20040;-55
2021/12/09 02:53:06;;;;;;;18.48;18.17;;;2.90;99.90;;;;;;4193257;28;20047;-54
2021/12/09 02:55:09;;;;;;;16.02;15.93;;;2.80;99.90;;;;;;4192155;28;20130;-54
2021/12/09 02:57:10;;;;;;;;;;;2.70;99.90;;;;;;4192935;28;20037;-54
2021/12/09 02:59:13;;;;;;;19.83;19.52;;;2.70;99.90;;;;;;4191112;28;20422;-55
2021/12/09 03:01:20;;;;;;;20.75;20.45;;;2.70;99.90;;;;;;4183987;28;20040;-54
2021/12/09 03:03:23;;;;;;;20.45;20.25;;;2.60;99.90;;;;;;4189793;28;20056;-55
2021/12/09 03:05:27;;;;;;;22.35;21.85;;;2.60;99.90;;;;;;4193926;28;20049;-54
2021/12/09 03:07:39;;;;;;;21.35;21.15;;;2.60;99.90;;;;;;4172321;28;20048;-54
2021/12/09 03:09:49;;;;;;;18.65;18.55;;;2.50;99.90;;;;;;4191896;28;20028;-55
2021/12/09 03:11:55;;;;;;;19.15;18.95;;;2.50;99.90;;;;;;4191679;28;20036;-55
2021/12/09 03:13:58;;;;;;;19.77;19.67;;;2.40;99.90;;;;;;4192877;28;20459;-54
2021/12/09 03:16:00;;;;;;;20.25;20.15;;;2.40;99.90;;;;;;4192244;28;20032;-54
2021/12/09 03:18:03;;;;;;;21.35;21.15;;;2.30;99.90;;;;;;4191220;28;20056;-54
2021/12/09 03:20:10;;;;;;;21.25;21.05;;;2.30;99.90;;;;;;4190685;28;20044;-54
2021/12/09 03:22:13;;;;;;;20.70;20.50;;;2.30;99.90;;;;;;4178484;28;20450;-53
2021/12/09 03:24:18;;;;;;;20.08;19.88;;;2.40;99.90;;;;;;4188626;28;20045;-54
2021/12/09 03:26:26;;;;;;;17.33;17.13;;;2.40;99.90;;;;;;4185387;28;20657;-53
2021/12/09 03:28:28;;;;;;;14.98;14.80;;;2.30;99.90;;;;;;4191599;28;20041;-53
2021/12/09 03:30:30;;;;;;;14.50;14.40;;;2.30;99.90;;;;;;4192760;28;20070;-52
2021/12/09 03:32:32;;;;;;;12.38;12.27;;;2.20;99.90;;;;;;4174446;28;20036;-52
2021/12/09 03:34:35;;;;;;;11.13;11.02;;;2.30;99.90;;;;;;4191945;28;20082;-52
2021/12/09 03:36:38;;;;;;;15.02;14.93;;;2.30;99.90;;;;;;4190246;28;20048;-53
2021/12/09 03:38:40;;;;;;;15.15;14.93;;;2.30;99.90;;;;;;4190897;28;20098;-52
2021/12/09 03:40:42;;;;;;;15.85;15.75;;;2.30;99.90;;;;;;4187663;28;20440;-52
2021/12/09 03:42:45;;;;;;;16.27;16.17;;;2.30;99.90;;;;;;4187492;28;20090;-52
2021/12/09 03:44:49;;;;;;;16.75;16.65;;;2.30;99.90;;;;;;4192380;28;20048;-52
2021/12/09 03:46:53;;;;;;;16.73;16.63;;;2.30;99.90;;;;;;4187594;28;20037;-53
2021/12/09 03:48:55;;;;;;;14.00;13.90;;;2.30;99.90;;;;;;4193248;28;20033;-52
2021/12/09 03:50:57;;;;;;;12.52;12.43;;;2.30;99.90;;;;;;4192248;28;20453;-52
2021/12/09 03:52:59;;;;;;;16.70;16.60;;;2.30;99.90;;;;;;4189680;28;20043;-53
2021/12/09 03:55:05;;;;;;;17.63;17.52;;;2.30;99.90;;;;;;4190860;28;20504;-52
2021/12/09 03:57:09;;;;;;;16.13;15.93;;;2.30;99.90;;;;;;4199838;28;20036;-52
2021/12/09 03:59:12;;;;;;;15.30;15.20;;;2.30;99.90;;;;;;4188326;28;20039;-52
2021/12/09 04:01:15;;;;;;;16.10;15.93;;;2.30;99.90;;;;;;4194771;28;20036;-50
2021/12/09 04:03:18;;;;;;;13.50;13.40;;;2.30;99.90;;;;;;4195287;28;20064;-52
2021/12/09 04:05:20;;;;;;;12.57;12.25;;;2.30;99.90;;;;;;4189849;28;20037;-53
2021/12/09 04:07:22;;;;;;;9.50;9.40;;;2.20;99.90;;;;;;4187141;28;20392;-52
2021/12/09 04:09:25;;;;;;;10.70;10.15;;;2.20;99.90;;;;;;4205082;28;20036;-52
2021/12/09 04:11:28;;;;;;;8.05;7.70;;;2.10;99.90;;;;;;4198954;28;20040;-52
2021/12/09 04:13:34;;;;;;;6.35;6.28;;;2.20;99.90;;;;;;4196571;28;20040;-53
2021/12/09 04:15:36;;;;;;;;;;;2.10;99.90;;;;;;4195816;28;20048;-53
2021/12/09 04:17:39;;;;;;;8.75;8.65;;;2.20;99.90;;;;;;4196461;28;20395;-51
2021/12/09 04:19:47;;;;;;;6.13;6.10;;;2.10;99.90;;;;;;4194949;28;20458;-52
2021/12/09 04:21:50;;;;;;;9.63;9.52;;;2.20;99.90;;;;;;4195704;28;20032;-52
2021/12/09 04:23:52;;;;;;;9.35;9.25;;;2.10;99.90;;;;;;4194767;28;20767;-52
2021/12/09 04:25:54;;;;;;;;;;;2.10;99.90;;;;;;4196149;28;20519;-53
2021/12/09 04:27:57;;;;;;;7.03;7.00;;;2.10;99.90;;;;;;4194424;28;19954;-52
2021/12/09 04:29:59;;;;;;;9.00;8.70;;;2.10;99.90;;;;;;4194962;28;20430;-52
2021/12/09 04:32:01;;;;;;;6.50;6.40;;;2.10;99.90;;;;;;4193331;28;20076;-52
2021/12/09 04:34:04;;;;;;;6.65;6.55;;;2.20;99.90;;;;;;4209501;28;20081;-52
2021/12/09 04:36:06;;;;;;;6.82;6.72;;;2.20;99.90;;;;;;4196779;28;20404;-53
2021/12/09 04:38:09;;;;;;;8.73;8.63;;;2.20;99.90;;;;;;4190497;28;20489;-52
2021/12/09 04:40:12;;;;;;;7.75;7.55;;;2.20;99.90;;;;;;4181057;28;20041;-52
2021/12/09 04:42:14;;;;;;;13.15;12.30;;;2.20;99.90;;;;;;4183831;28;20130;-53
2021/12/09 04:44:16;;;;;;;7.70;7.43;;;2.20;99.90;;;;;;4192787;28;20044;-52
2021/12/09 04:46:18;;;;;;;7.45;7.35;;;2.10;99.90;;;;;;4195699;28;20052;-52
2021/12/09 04:48:20;;;;;;;11.27;11.18;;;2.20;99.90;;;;;;4194596;28;20040;-53
2021/12/09 04:50:23;;;;;;;11.73;11.63;;;2.20;99.90;;;;;;4186299;28;20045;-54
2021/12/09 04:52:25;;;;;;;10.25;10.15;;;2.20;99.90;;;;;;4175713;28;20493;-53
2021/12/09 04:54:28;;;;;;;8.93;8.82;;;2.20;99.90;;;;;;4165034;28;20050;-54
2021/12/09 04:56:30;;;;;;;6.05;5.88;;;2.10;99.90;;;;;;4176773;28;20370;-53
2021/12/09 04:58:33;;;;;;;6.80;6.78;;;2.20;99.90;;;;;;4178709;28;20099;-54
2021/12/09 05:00:39;;;;;;;8.02;7.93;;;2.20;99.90;;;;;;4177488;28;20077;-52
2021/12/09 05:05:03;;;;;;;6.57;6.57;;;2.20;99.90;;;;;;4176449;28;20043;-53
2021/12/09 05:07:05;;;;;;;6.90;6.90;;;2.30;99.90;;;;;;4178501;28;20040;-53
2021/12/09 05:09:11;;;;;;;5.50;5.50;;;2.20;99.90;;;;;;4176339;28;20505;-53
2021/12/09 05:11:34;;;;;;;6.07;5.97;;;2.20;99.90;;;;;;4171695;28;20033;-52
2021/12/09 05:13:38;;;;;;;6.70;6.60;;;2.20;99.90;;;;;;4176603;28;20048;-52
2021/12/09 05:15:40;;;;;;;6.88;6.88;;;2.20;99.90;;;;;;4158399;28;20136;-51
2021/12/09 05:17:42;;;;;;;6.45;6.45;;;2.20;99.90;;;;;;4175313;28;20508;-53
2021/12/09 05:19:45;;;;;;;5.45;5.45;;;2.20;99.90;;;;;;4173798;28;20091;-53
2021/12/09 05:21:48;;;;;;;;;;;2.20;99.90;;;;;;4176027;28;20040;-52
2021/12/09 05:23:50;;;;;;;6.57;6.57;;;2.20;99.90;;;;;;4177727;28;19925;-52
2021/12/09 05:25:52;;;;;;;8.52;8.43;;;2.20;99.90;;;;;;4158501;28;20025;-53
2021/12/09 05:27:54;;;;;;;8.90;8.80;;;2.20;99.90;;;;;;4177516;28;20040;-52
2021/12/09 05:30:11;;;;;;;10.18;9.93;;;2.20;99.90;;;;;;4177096;28;20041;-53
2021/12/09 05:32:14;;;;;;;6.75;6.65;;;2.20;99.90;;;;;;4178673;28;20059;-52
2021/12/09 05:34:16;;;;;;;5.00;4.90;;;2.20;99.90;;;;;;4177793;28;20044;-53
2021/12/09 05:36:19;;;;;;;7.95;7.85;;;2.20;99.90;;;;;;4177465;28;20033;-53
2021/12/09 05:38:21;;;;;;;;;;;2.20;99.90;;;;;;4177600;28;20044;-52
2021/12/09 05:40:23;;;;;;;7.28;7.22;;;2.20;99.90;;;;;;4175947;28;19924;-52
2021/12/09 05:42:26;;;;;;;4.68;4.68;;;2.20;99.90;;;;;;4177878;28;20076;-54
2021/12/09 05:44:28;;;;;;;7.90;7.82;;;2.20;99.90;;;;;;4175337;28;20512;-53
2021/12/09 05:46:32;;;;;;;9.05;8.95;;;2.20;99.90;;;;;;4177210;28;20037;-53
2021/12/09 05:48:36;;;;;;;9.70;9.60;;;2.30;99.90;;;;;;4174631;28;20033;-52
2021/12/09 05:50:40;;;;;;;9.45;9.35;;;2.20;99.90;;;;;;4178678;28;20045;-53
2021/12/09 05:52:42;;;;;;;9.75;9.65;;;2.30;99.90;;;;;;4188643;28;20382;-53
2021/12/09 05:54:46;;;;;;;8.80;8.60;;;2.30;99.90;;;;;;4194340;28;20029;-53
2021/12/09 05:56:49;;;;;;;7.28;6.95;;;2.30;99.90;;;;;;4191592;28;20051;-53
2021/12/09 05:58:52;;;;;;;9.50;9.40;;;2.30;99.90;;;;;;4193853;28;20029;-54
2021/12/09 06:00:55;;;;;;;;;;;2.30;99.90;;;;;;4191662;28;20089;-53
2021/12/09 06:02:57;;;;;;;4.82;4.82;;;2.30;99.90;;;;;;4193829;28;19924;-53
2021/12/09 06:05:00;;;;;;;8.75;8.65;;;2.40;99.90;;;;;;4190944;28;20044;-51
2021/12/09 06:07:02;;;;;;;15.88;15.57;;;2.30;99.90;;;;;;4194502;28;20033;-52
2021/12/09 06:09:07;;;;;;;11.68;11.57;;;2.30;99.90;;;;;;4190507;28;20094;-50
2021/12/09 06:11:11;;;;;;;18.38;18.17;;;2.30;99.90;;;;;;4182349;28;20037;-52
2021/12/09 06:13:14;;;;;;;19.08;18.88;;;2.30;99.90;;;;;;4194051;28;20138;-52
2021/12/09 06:15:16;;;;;;;18.38;18.05;;;2.40;99.90;;;;;;4192652;28;20047;-52
2021/12/09 06:17:18;;;;;;;17.58;17.38;;;2.40;99.90;;;;;;4191839;28;20564;-52
2021/12/09 06:19:21;;;;;;;16.33;16.23;;;2.30;99.90;;;;;;4189080;28;20041;-52
2021/12/09 06:21:27;;;;;;;14.13;14.02;;;2.40;99.90;;;;;;4190748;28;20105;-52
2021/12/09 06:23:29;;;;;;;13.63;13.52;;;2.40;99.90;;;;;;4178014;28;20049;-53
2021/12/09 06:25:31;;;;;;;7.65;7.55;;;2.40;99.90;;;;;;4190573;28;20033;-51
2021/12/09 06:27:33;;;;;;;9.43;9.25;;;2.40;99.90;;;;;;4176533;28;20037;-51
2021/12/09 06:29:35;;;;;;;16.10;15.77;;;2.40;99.90;;;;;;4193109;28;20078;-51
2021/12/09 06:31:38;;;;;;;7.90;7.70;;;2.50;99.90;;;;;;4189056;28;20040;-53
2021/12/09 06:33:40;;;;;;;15.75;15.38;;;2.40;99.90;;;;;;4191542;28;20032;-52
2021/12/09 06:35:42;;;;;;;11.57;11.48;;;2.40;99.90;;;;;;4193856;28;20032;-52
2021/12/09 06:37:46;;;;;;;19.73;19.48;;;2.40;99.90;;;;;;4191256;28;20028;-52
2021/12/09 06:39:48;;;;;;;19.90;19.67;;;2.40;99.90;;;;;;4176065;28;20600;-52
2021/12/09 06:41:51;;;;;;;21.75;21.45;;;2.40;99.90;;;;;;4190506;28;20040;-51
2021/12/09 06:43:53;;;;;;;22.85;22.55;;;2.40;99.90;;;;;;4193632;28;20045;-53
2021/12/09 06:45:57;;;;;;;23.45;22.92;;;2.40;99.90;;;;;;4191680;28;20131;-51
2021/12/09 06:47:59;;;;;;;20.23;20.02;;;2.30;99.90;;;;;;4192983;28;20534;-52
2021/12/09 06:50:07;;;;;;;22.38;22.08;;;2.30;99.90;;;;;;4193719;28;20047;-52
2021/12/09 06:52:09;;;;;;;24.35;23.95;;;2.30;99.90;;;;;;4193425;28;20048;-53
2021/12/09 06:54:11;;;;;;;20.98;20.77;;;2.30;99.90;;;;;;4190422;28;20041;-53
2021/12/09 06:56:13;;;;;;;20.98;20.67;;;2.30;99.90;;;;;;4192642;28;20047;-52
2021/12/09 06:58:15;;;;;;;21.38;20.98;;;2.20;99.90;;;;;;4192126;28;20070;-52
2021/12/09 07:00:29;;;;;;;25.15;24.70;;;2.10;99.90;;;;;;4190455;28;20508;-53
2021/12/09 07:02:31;;;;;;;25.38;24.98;;;2.20;99.90;;;;;;4191504;28;20439;-53
2021/12/09 07:04:34;;;;;;;25.25;24.70;;;2.10;99.90;;;;;;4174925;28;20128;-52
2021/12/09 07:06:37;;;;;;;26.35;25.55;;;2.10;99.90;;;;;;4193436;28;20048;-52
2021/12/09 07:08:46;;;;;;;24.73;24.33;;;2.10;99.90;;;;;;4192704;28;20439;-52
2021/12/09 07:10:50;;;;;;;24.92;24.50;;;2.00;99.90;;;;;;4191083;28;20101;-52
2021/12/09 07:12:52;;;;;;;26.95;26.45;;;2.00;99.90;;;;;;4192706;28;20597;-52
2021/12/09 07:14:54;;;;;;;24.13;23.73;;;1.90;99.90;;;;;;4194064;28;20037;-52
2021/12/09 07:16:56;;;;;;;24.08;23.73;;;2.00;99.90;;;;;;4183915;28;20032;-51
2021/12/09 07:19:00;;;;;;;22.88;22.58;;;2.10;99.90;;;;;;4190640;28;20151;-53
2021/12/09 07:21:03;;;;;;;24.40;23.63;;;2.10;99.90;;;;;;4192380;28;20123;-52
2021/12/09 07:23:05;;;;;;;24.20;23.80;;;2.00;99.90;;;;;;4191835;28;20048;-52
2021/12/09 07:25:08;;;;;;;22.55;22.25;;;2.00;99.90;;;;;;4191314;28;20044;-52
2021/12/09 07:27:10;;;;;;;23.80;23.23;;;2.00;99.90;;;;;;4193066;28;20041;-53
2021/12/09 07:29:12;;;;;;;23.52;22.40;;;2.00;99.90;;;;;;4192373;28;20079;-52
2021/12/09 07:31:16;;;;;;;23.63;22.98;;;2.00;99.90;;;;;;4192682;28;20029;-52
2021/12/09 07:33:18;;;;;;;19.17;18.95;;;2.00;99.90;;;;;;4192425;28;20393;-52
2021/12/09 07:35:20;;;;;;;21.92;21.60;;;2.10;99.90;;;;;;4192986;28;20036;-52
2021/12/09 07:37:22;;;;;;;21.13;20.92;;;2.10;99.90;;;;;;4191177;28;20040;-51
2021/12/09 07:39:25;;;;;;;19.23;19.02;;;2.10;99.90;;;;;;4193856;28;20653;-52
2021/12/09 07:41:28;;;;;;;18.55;18.25;;;2.20;99.90;;;;;;4190837;28;20488;-52
2021/12/09 07:43:30;;;;;;;18.40;18.20;;;2.20;99.90;;;;;;4192881;28;20047;-52
2021/12/09 07:45:33;;;;;;;18.52;18.23;;;2.20;99.90;;;;;;4192034;28;20487;-52
2021/12/09 07:47:35;;;;;;;;;;;2.20;99.90;;;;;;4192149;28;20155;-52
2021/12/09 07:49:37;;;;;;;18.10;17.90;;;2.20;99.90;;;;;;4191593;28;19924;-53
2021/12/09 07:51:39;;;;;;;19.23;19.02;;;2.20;99.90;;;;;;4193558;28;20665;-53
2021/12/09 07:53:41;;;;;;;20.85;20.60;;;2.20;99.90;;;;;;4190602;28;20037;-51
2021/12/09 07:55:44;;;;;;;20.75;20.55;;;2.20;99.90;;;;;;4192921;28;20045;-52
2021/12/09 07:57:48;;;;;;;19.67;19.40;;;2.30;99.90;;;;;;4174216;28;20044;-51
2021/12/09 07:59:50;;;;;;;16.73;16.60;;;2.30;99.90;;;;;;4192066;28;20082;-52
2021/12/09 08:01:52;;;;;;;18.98;18.77;;;2.30;99.90;;;;;;4192095;28;20037;-53
2021/12/09 08:03:55;;;;;;;16.45;16.33;;;2.30;99.90;;;;;;4191960;28;20518;-52
2021/12/09 08:05:57;;;;;;;17.02;16.35;;;2.30;99.90;;;;;;4190335;28;20401;-51
2021/12/09 08:07:59;;;;;;;17.08;16.77;;;2.40;99.90;;;;;;4192698;28;20040;-52
2021/12/09 08:10:03;;;;;;;11.27;11.18;;;2.40;99.90;;;;;;4192434;28;20488;-51
2021/12/09 08:12:05;;;;;;;12.20;12.10;;;2.40;99.90;;;;;;4191792;28;20063;-53
2021/12/09 08:14:10;;;;;;;;;;;2.40;99.90;;;;;;4192095;28;20043;-52
2021/12/09 08:16:13;;;;;;;13.90;13.80;;;2.50;99.90;;;;;;4191747;28;20010;-51
2021/12/09 08:20:18;;;;;;;15.95;15.65;;;2.60;99.90;;;;;;4193072;28;20037;-52
2021/12/09 08:22:20;;;;;;;17.23;17.02;;;2.60;99.90;;;;;;4190418;28;20053;-52
2021/12/09 08:24:22;;;;;;;18.58;18.38;;;2.60;99.90;;;;;;4193025;28;20098;-50
2021/12/09 08:26:24;;;;;;;15.93;15.77;;;2.60;99.90;;;;;;4190638;28;20044;-51
2021/12/09 08:28:27;;;;;;;15.43;15.32;;;2.60;99.90;;;;;;4193173;28;20551;-53
2021/12/09 08:30:29;;;;;;;15.95;15.65;;;2.60;99.90;;;;;;4172459;28;20037;-52
2021/12/09 08:32:53;;;;;;;15.20;14.98;;;2.70;99.90;;;;;;4184316;28;20064;-52
2021/12/09 08:34:55;;;;;;;16.00;15.80;;;2.60;99.90;;;;;;4191939;28;20067;-52
2021/12/09 08:36:57;;;;;;;22.30;21.00;;;2.60;99.90;;;;;;4159836;28;20060;-52
2021/12/09 08:38:59;;;;;;;10.25;10.15;;;2.70;99.90;;;;;;4172997;28;20037;-52
2021/12/09 08:41:02;;;;;;;14.50;14.30;;;2.70;99.90;;;;;;4174668;28;20048;-51
2021/12/09 08:43:05;;;;;;;11.55;11.45;;;2.80;99.90;;;;;;4191449;28;20040;-51
2021/12/09 08:45:10;;;;;;;;;;;2.80;99.90;;;;;;4196005;28;20532;-53
2021/12/09 08:47:12;;;;;;;10.63;10.32;;;2.80;99.90;;;;;;4195586;28;19977;-51
2021/12/09 08:49:15;;;;;;;7.05;6.53;;;2.80;99.90;;;;;;4195223;28;20554;-52
2021/12/09 08:51:17;;;;;;;10.15;9.82;;;2.80;99.90;;;;;;4195844;28;20040;-51
2021/12/09 08:53:22;;;;;;;9.95;9.65;;;2.80;99.90;;;;;;4195116;28;20055;-53
2021/12/09 08:55:24;;;;;;;8.95;8.75;;;2.90;99.90;;;;;;4195189;28;20070;-52
2021/12/09 08:57:26;;;;;;;8.88;8.68;;;2.90;99.90;;;;;;4193490;28;20094;-52
2021/12/09 08:59:29;;;;;;;7.35;7.05;;;2.90;99.90;;;;;;4195317;28;20531;-53
2021/12/09 09:01:41;;;;;;;8.30;8.10;;;3.00;99.90;;;;;;4192391;28;20040;-53
2021/12/09 09:03:43;;;;;;;8.18;7.82;;;3.00;99.90;;;;;;4193789;28;20738;-51
2021/12/09 09:05:45;;;;;;;9.02;8.73;;;3.00;99.90;;;;;;4195070;28;20085;-52
2021/12/09 09:07:49;;;;;;;6.03;5.93;;;3.10;99.90;;;;;;4188884;28;20043;-53
2021/12/09 09:09:51;;;;;;;5.18;5.07;;;3.10;99.90;;;;;;4190302;28;20041;-52
2021/12/09 09:11:54;;;;;;;5.93;5.82;;;3.20;99.90;;;;;;4194766;28;20484;-53
2021/12/09 09:13:57;;;;;;;5.78;5.57;;;3.20;99.90;;;;;;4194553;28;20032;-52
2021/12/09 09:15:59;;;;;;;5.97;5.88;;;3.20;99.90;;;;;;4193508;28;20040;-52
2021/12/09 09:18:02;;;;;;;4.45;4.35;;;3.30;99.90;;;;;;4194623;28;20040;-52
2021/12/09 09:20:08;;;;;;;4.65;4.55;;;3.20;99.90;;;;;;4192650;28;20638;-51
2021/12/09 09:22:10;;;;;;;5.70;5.60;;;3.30;99.90;;;;;;4175889;28;20045;-52
2021/12/09 09:24:12;;;;;;;5.25;5.15;;;3.30;99.90;;;;;;4196117;28;20044;-52
2021/12/09 09:26:14;;;;;;;5.28;4.65;;;3.50;99.90;;;;;;4194341;28;20094;-53
2021/12/09 09:28:18;;;;;;;4.60;4.60;;;3.50;99.90;;;;;;4199425;28;20071;-53
2021/12/09 09:30:20;;;;;;;7.63;5.72;;;3.40;99.90;;;;;;4194313;28;20550;-52
2021/12/09 09:32:23;;;;;;;8.02;7.75;;;3.50;99.90;;;;;;4194548;28;20041;-53
2021/12/09 09:34:25;;;;;;;7.43;7.05;;;3.50;99.90;;;;;;4195179;28;20055;-53
2021/12/09 09:36:27;;;;;;;6.95;6.80;;;3.50;99.90;;;;;;4193892;28;20044;-53
2021/12/09 09:38:29;;;;;;;6.20;6.10;;;3.60;99.90;;;;;;4194467;28;20043;-53
2021/12/09 09:40:51;;;;;;;5.78;5.57;;;3.70;99.90;;;;;;4194492;28;20040;-53
2021/12/09 09:43:13;;;;;;;5.85;5.75;;;3.80;99.90;;;;;;4194562;28;20045;-52
2021/12/09 09:45:16;;;;;;;7.72;7.63;;;3.90;99.90;;;;;;4191482;28;20052;-51
2021/12/09 09:47:18;;;;;;;6.20;6.10;;;4.00;99.90;;;;;;4193203;28;20032;-53
2021/12/09 09:49:21;;;;;;;6.55;6.45;;;4.00;99.90;;;;;;4194825;28;20049;-53
2021/12/09 09:51:29;;;;;;;4.45;4.35;;;4.00;99.90;;;;;;4192148;28;20040;-53
2021/12/09 09:53:32;;;;;;;6.10;6.00;;;4.10;99.90;;;;;;4194175;28;20041;-52
2021/12/09 09:55:35;;;;;;;4.80;4.70;;;4.10;99.90;;;;;;4191613;28;20036;-52
2021/12/09 09:57:37;;;;;;;;;;;4.10;99.90;;;;;;4194573;28;20036;-52
2021/12/09 09:59:42;;;;;;;6.55;6.35;;;4.10;99.90;;;;;;4191487;28;19964;-53
2021/12/09 10:01:46;;;;;;;4.93;4.82;;;4.20;99.90;;;;;;4192948;28;20044;-53
2021/12/09 10:03:57;;;;;;;5.63;5.53;;;4.20;99.90;;;;;;4191931;28;20033;-53
2021/12/09 10:06:02;;;;;;;4.70;4.70;;;4.20;99.90;;;;;;4194261;28;20126;-52
2021/12/09 10:08:05;;;;;;;4.60;4.60;;;4.10;99.90;;;;;;4192424;28;20075;-53
2021/12/09 10:10:08;;;;;;;4.68;4.57;;;4.00;99.90;;;;;;4193606;28;20060;-53
2021/12/09 10:12:12;;;;;;;5.55;5.45;;;4.00;99.90;;;;;;4193098;28;20045;-53
2021/12/09 10:14:17;;;;;;;9.15;9.02;;;3.90;99.90;;;;;;4193622;28;20050;-52
2021/12/09 10:16:24;;;;;;;9.95;9.80;;;3.90;99.90;;;;;;4191594;28;20036;-52
2021/12/09 10:18:42;;;;;;;13.98;13.43;;;3.90;99.90;;;;;;4193873;28;20404;-52
2021/12/09 10:20:54;;;;;;;10.88;10.68;;;4.00;99.90;;;;;;4193413;28;20070;-52
2021/12/09 10:22:56;;;;;;;7.53;7.43;;;4.10;99.90;;;;;;4193151;28;20094;-52
2021/12/09 10:24:59;;;;;;;5.45;5.25;;;4.10;99.90;;;;;;4175078;28;20106;-53
2021/12/09 10:27:02;;;;;;;6.03;5.93;;;4.20;99.90;;;;;;4193175;28;20049;-53
2021/12/09 10:29:04;;;;;;;;;;;4.30;99.90;;;;;;4193039;28;20041;-52
2021/12/09 10:31:14;;;;;;;4.55;4.43;;;4.30;99.90;;;;;;4194279;28;20014;-52
2021/12/09 10:33:22;;;;;;;4.70;4.40;;;4.30;99.90;;;;;;4193096;28;20391;-53
2021/12/09 10:35:25;;;;;;;5.78;5.30;;;4.30;99.90;;;;;;4190519;28;20040;-51
2021/12/09 10:37:32;;;;;;;6.57;6.03;;;4.20;99.90;;;;;;4184753;28;20059;-52
2021/12/09 10:39:42;;;;;;;4.75;4.75;;;4.30;99.90;;;;;;4189794;28;20124;-53
2021/12/09 10:41:44;;;;;;;4.63;4.35;;;4.20;99.90;;;;;;4189181;28;20032;-51
2021/12/09 10:43:50;;;;;;;6.72;6.47;;;4.10;99.90;;;;;;4188036;28;20078;-52
2021/12/09 10:45:52;;;;;;;7.68;7.57;;;4.20;99.90;;;;;;4166071;28;20453;-53
2021/12/09 10:48:06;;;;;;;6.20;6.00;;;4.30;99.90;;;;;;4190230;28;20125;-51
2021/12/09 10:50:28;;;;;;;8.10;8.00;;;4.30;99.90;;;;;;4196952;28;20036;-52